sensor_id;sensor_type;location;lat;lon;timestamp;P1;durP1;ratioP1;P2;durP2;ratioP2
41233;SDS011;26968;42.686;23.352;2023-05-10T00:00:04;6.43;;;5.20;;
41233;SDS011;26968;42.686;23.352;2023-05-10T00:02:31;8.18;;;5.45;;
41233;SDS011;26968;42.686;23.352;2023-05-10T00:04:56;8.38;;;5.65;;
41233;SDS011;26968;42.686;23.352;2023-05-10T00:07:21;7.90;;;5.93;;
41233;SDS011;26968;42.686;23.352;2023-05-10T00:09:47;12.20;;;7.15;;
41233;SDS011;26968;42.686;23.352;2023-05-10T00:12:13;8.30;;;6.53;;
41233;SDS011;26968;42.686;23.352;2023-05-10T00:14:39;10.27;;;6.93;;
41233;SDS011;26968;42.686;23.352;2023-05-10T00:17:04;10.55;;;7.65;;
41233;SDS011;26968;42.686;23.352;2023-05-10T00:19:30;11.00;;;8.23;;
41233;SDS011;26968;42.686;23.352;2023-05-10T00:21:55;13.93;;;7.78;;
41233;SDS011;26968;42.686;23.352;2023-05-10T00:24:20;12.00;;;7.30;;
41233;SDS011;26968;42.686;23.352;2023-05-10T00:26:46;12.82;;;8.52;;
41233;SDS011;26968;42.686;23.352;2023-05-10T00:29:11;11.65;;;8.90;;
41233;SDS011;26968;42.686;23.352;2023-05-10T00:31:37;12.43;;;8.20;;
41233;SDS011;26968;42.686;23.352;2023-05-10T00:34:02;12.60;;;9.00;;
41233;SDS011;26968;42.686;23.352;2023-05-10T00:36:27;12.07;;;8.45;;
41233;SDS011;26968;42.686;23.352;2023-05-10T00:38:53;15.02;;;9.25;;
41233;SDS011;26968;42.686;23.352;2023-05-10T00:41:18;13.55;;;7.75;;
41233;SDS011;26968;42.686;23.352;2023-05-10T00:43:44;10.15;;;8.25;;
41233;SDS011;26968;42.686;23.352;2023-05-10T00:46:09;13.48;;;8.93;;
41233;SDS011;26968;42.686;23.352;2023-05-10T00:48:35;12.95;;;9.70;;
41233;SDS011;26968;42.686;23.352;2023-05-10T00:51:01;11.07;;;8.82;;
41233;SDS011;26968;42.686;23.352;2023-05-10T00:53:28;15.13;;;8.70;;
41233;SDS011;26968;42.686;23.352;2023-05-10T00:55:57;9.95;;;8.95;;
41233;SDS011;26968;42.686;23.352;2023-05-10T00:58:22;11.00;;;9.40;;
41233;SDS011;26968;42.686;23.352;2023-05-10T01:00:48;11.20;;;9.27;;
41233;SDS011;26968;42.686;23.352;2023-05-10T01:03:15;13.65;;;10.57;;
41233;SDS011;26968;42.686;23.352;2023-05-10T01:05:41;11.60;;;9.45;;
41233;SDS011;26968;42.686;23.352;2023-05-10T01:08:07;10.48;;;9.38;;
41233;SDS011;26968;42.686;23.352;2023-05-10T01:10:33;11.55;;;9.38;;
41233;SDS011;26968;42.686;23.352;2023-05-10T01:12:59;12.63;;;9.20;;
41233;SDS011;26968;42.686;23.352;2023-05-10T01:15:25;8.57;;;7.68;;
41233;SDS011;26968;42.686;23.352;2023-05-10T01:17:51;12.27;;;8.15;;
41233;SDS011;26968;42.686;23.352;2023-05-10T01:20:17;9.52;;;8.05;;
41233;SDS011;26968;42.686;23.352;2023-05-10T01:36:30;11.98;;;6.85;;
41233;SDS011;26968;42.686;23.352;2023-05-10T01:39:11;12.82;;;7.63;;
41233;SDS011;26968;42.686;23.352;2023-05-10T01:44:27;8.32;;;6.85;;
41233;SDS011;26968;42.686;23.352;2023-05-10T01:47:07;7.63;;;6.50;;
41233;SDS011;26968;42.686;23.352;2023-05-10T01:49:56;9.18;;;7.10;;
41233;SDS011;26968;42.686;23.352;2023-05-10T01:52:29;9.93;;;7.32;;
41233;SDS011;26968;42.686;23.352;2023-05-10T01:55:07;8.45;;;6.95;;
41233;SDS011;26968;42.686;23.352;2023-05-10T01:57:37;9.82;;;6.55;;
41233;SDS011;26968;42.686;23.352;2023-05-10T02:00:06;6.75;;;5.63;;
41233;SDS011;26968;42.686;23.352;2023-05-10T02:02:36;8.85;;;6.40;;
41233;SDS011;26968;42.686;23.352;2023-05-10T02:05:04;8.57;;;6.63;;
41233;SDS011;26968;42.686;23.352;2023-05-10T02:07:32;10.18;;;6.90;;
41233;SDS011;26968;42.686;23.352;2023-05-10T02:10:00;7.65;;;6.60;;
41233;SDS011;26968;42.686;23.352;2023-05-10T02:12:29;11.18;;;6.80;;
41233;SDS011;26968;42.686;23.352;2023-05-10T02:15:00;11.35;;;7.03;;
41233;SDS011;26968;42.686;23.352;2023-05-10T02:17:28;7.10;;;6.40;;
41233;SDS011;26968;42.686;23.352;2023-05-10T02:19:55;7.60;;;6.88;;
41233;SDS011;26968;42.686;23.352;2023-05-10T02:22:22;8.75;;;6.53;;
41233;SDS011;26968;42.686;23.352;2023-05-10T02:24:49;8.00;;;5.85;;
41233;SDS011;26968;42.686;23.352;2023-05-10T02:27:15;8.10;;;6.30;;
41233;SDS011;26968;42.686;23.352;2023-05-10T02:29:44;6.47;;;5.72;;
41233;SDS011;26968;42.686;23.352;2023-05-10T02:32:11;7.82;;;6.70;;
41233;SDS011;26968;42.686;23.352;2023-05-10T02:34:37;11.82;;;6.60;;
41233;SDS011;26968;42.686;23.352;2023-05-10T02:37:04;10.32;;;6.13;;
41233;SDS011;26968;42.686;23.352;2023-05-10T02:39:31;10.35;;;6.53;;
41233;SDS011;26968;42.686;23.352;2023-05-10T02:41:57;10.60;;;5.20;;
41233;SDS011;26968;42.686;23.352;2023-05-10T02:44:23;8.57;;;6.00;;
41233;SDS011;26968;42.686;23.352;2023-05-10T02:46:55;11.02;;;5.93;;
41233;SDS011;26968;42.686;23.352;2023-05-10T02:49:22;11.88;;;6.45;;
41233;SDS011;26968;42.686;23.352;2023-05-10T02:51:49;9.85;;;6.30;;
41233;SDS011;26968;42.686;23.352;2023-05-10T02:54:24;6.78;;;5.68;;
41233;SDS011;26968;42.686;23.352;2023-05-10T02:56:56;9.48;;;5.60;;
41233;SDS011;26968;42.686;23.352;2023-05-10T02:59:24;7.20;;;5.72;;
41233;SDS011;26968;42.686;23.352;2023-05-10T03:01:49;10.90;;;6.05;;
41233;SDS011;26968;42.686;23.352;2023-05-10T03:04:15;8.20;;;6.03;;
41233;SDS011;26968;42.686;23.352;2023-05-10T03:06:40;8.73;;;5.97;;
41233;SDS011;26968;42.686;23.352;2023-05-10T03:09:06;8.32;;;5.68;;
41233;SDS011;26968;42.686;23.352;2023-05-10T03:11:39;10.98;;;6.13;;
41233;SDS011;26968;42.686;23.352;2023-05-10T03:14:32;9.73;;;6.45;;
41233;SDS011;26968;42.686;23.352;2023-05-10T03:17:29;7.90;;;5.93;;
41233;SDS011;26968;42.686;23.352;2023-05-10T03:20:04;8.82;;;5.82;;
41233;SDS011;26968;42.686;23.352;2023-05-10T03:22:36;12.60;;;6.28;;
41233;SDS011;26968;42.686;23.352;2023-05-10T03:25:06;11.45;;;6.43;;
41233;SDS011;26968;42.686;23.352;2023-05-10T03:27:35;9.57;;;6.45;;
41233;SDS011;26968;42.686;23.352;2023-05-10T03:30:03;8.38;;;6.13;;
41233;SDS011;26968;42.686;23.352;2023-05-10T03:32:31;14.90;;;6.35;;
41233;SDS011;26968;42.686;23.352;2023-05-10T03:34:57;8.70;;;6.43;;
41233;SDS011;26968;42.686;23.352;2023-05-10T03:37:23;12.13;;;6.20;;
41233;SDS011;26968;42.686;23.352;2023-05-10T03:39:48;9.02;;;5.60;;
41233;SDS011;26968;42.686;23.352;2023-05-10T03:42:14;10.88;;;6.78;;
41233;SDS011;26968;42.686;23.352;2023-05-10T03:44:39;8.40;;;5.57;;
41233;SDS011;26968;42.686;23.352;2023-05-10T03:47:05;8.85;;;5.90;;
41233;SDS011;26968;42.686;23.352;2023-05-10T03:49:30;11.20;;;6.53;;
41233;SDS011;26968;42.686;23.352;2023-05-10T03:51:56;8.48;;;5.70;;
41233;SDS011;26968;42.686;23.352;2023-05-10T03:54:21;9.75;;;6.18;;
41233;SDS011;26968;42.686;23.352;2023-05-10T03:56:46;10.85;;;6.20;;
41233;SDS011;26968;42.686;23.352;2023-05-10T03:59:13;11.00;;;6.50;;
41233;SDS011;26968;42.686;23.352;2023-05-10T04:01:38;9.55;;;6.35;;
41233;SDS011;26968;42.686;23.352;2023-05-10T04:04:04;10.93;;;6.75;;
41233;SDS011;26968;42.686;23.352;2023-05-10T04:06:29;11.30;;;5.50;;
41233;SDS011;26968;42.686;23.352;2023-05-10T04:08:55;8.75;;;6.28;;
41233;SDS011;26968;42.686;23.352;2023-05-10T04:11:21;10.75;;;6.70;;
41233;SDS011;26968;42.686;23.352;2023-05-10T04:13:47;12.63;;;6.68;;
41233;SDS011;26968;42.686;23.352;2023-05-10T04:16:12;13.43;;;6.78;;
41233;SDS011;26968;42.686;23.352;2023-05-10T04:18:38;13.32;;;6.32;;
41233;SDS011;26968;42.686;23.352;2023-05-10T04:21:04;10.60;;;6.55;;
41233;SDS011;26968;42.686;23.352;2023-05-10T04:23:36;10.48;;;6.70;;
41233;SDS011;26968;42.686;23.352;2023-05-10T04:26:01;12.90;;;6.63;;
41233;SDS011;26968;42.686;23.352;2023-05-10T04:28:27;12.30;;;6.85;;
41233;SDS011;26968;42.686;23.352;2023-05-10T04:30:52;10.38;;;6.90;;
41233;SDS011;26968;42.686;23.352;2023-05-10T04:33:18;10.02;;;5.85;;
41233;SDS011;26968;42.686;23.352;2023-05-10T04:35:43;8.60;;;5.90;;
41233;SDS011;26968;42.686;23.352;2023-05-10T04:38:10;11.73;;;6.82;;
41233;SDS011;26968;42.686;23.352;2023-05-10T04:40:35;12.38;;;6.70;;
41233;SDS011;26968;42.686;23.352;2023-05-10T04:43:01;8.38;;;6.43;;
41233;SDS011;26968;42.686;23.352;2023-05-10T04:45:26;10.75;;;5.65;;
41233;SDS011;26968;42.686;23.352;2023-05-10T04:47:51;10.15;;;5.85;;
41233;SDS011;26968;42.686;23.352;2023-05-10T04:50:17;12.68;;;6.18;;
41233;SDS011;26968;42.686;23.352;2023-05-10T04:52:43;10.75;;;6.38;;
41233;SDS011;26968;42.686;23.352;2023-05-10T04:55:08;9.38;;;6.93;;
41233;SDS011;26968;42.686;23.352;2023-05-10T04:57:34;15.00;;;7.35;;
41233;SDS011;26968;42.686;23.352;2023-05-10T05:00:00;11.88;;;7.20;;
41233;SDS011;26968;42.686;23.352;2023-05-10T05:02:25;11.65;;;7.40;;
41233;SDS011;26968;42.686;23.352;2023-05-10T05:04:51;10.85;;;6.35;;
41233;SDS011;26968;42.686;23.352;2023-05-10T05:07:16;9.82;;;6.95;;
41233;SDS011;26968;42.686;23.352;2023-05-10T05:09:42;12.63;;;6.40;;
41233;SDS011;26968;42.686;23.352;2023-05-10T05:12:07;11.48;;;7.32;;
41233;SDS011;26968;42.686;23.352;2023-05-10T05:14:32;11.30;;;7.13;;
41233;SDS011;26968;42.686;23.352;2023-05-10T05:16:58;12.85;;;6.82;;
41233;SDS011;26968;42.686;23.352;2023-05-10T05:19:23;16.42;;;7.60;;
41233;SDS011;26968;42.686;23.352;2023-05-10T05:21:49;16.23;;;8.32;;
41233;SDS011;26968;42.686;23.352;2023-05-10T05:24:14;15.02;;;8.13;;
41233;SDS011;26968;42.686;23.352;2023-05-10T05:26:40;13.00;;;9.38;;
41233;SDS011;26968;42.686;23.352;2023-05-10T05:29:06;16.48;;;9.18;;
41233;SDS011;26968;42.686;23.352;2023-05-10T05:31:31;15.07;;;8.80;;
41233;SDS011;26968;42.686;23.352;2023-05-10T05:33:57;12.68;;;8.00;;
41233;SDS011;26968;42.686;23.352;2023-05-10T05:36:22;16.92;;;8.18;;
41233;SDS011;26968;42.686;23.352;2023-05-10T05:38:48;11.02;;;7.75;;
41233;SDS011;26968;42.686;23.352;2023-05-10T05:41:13;14.10;;;9.35;;
41233;SDS011;26968;42.686;23.352;2023-05-10T05:43:39;17.25;;;10.32;;
41233;SDS011;26968;42.686;23.352;2023-05-10T05:46:04;16.92;;;9.63;;
41233;SDS011;26968;42.686;23.352;2023-05-10T05:48:30;15.35;;;9.50;;
41233;SDS011;26968;42.686;23.352;2023-05-10T05:50:56;16.98;;;8.85;;
41233;SDS011;26968;42.686;23.352;2023-05-10T05:53:22;12.02;;;8.50;;
41233;SDS011;26968;42.686;23.352;2023-05-10T05:55:55;16.25;;;8.85;;
41233;SDS011;26968;42.686;23.352;2023-05-10T05:58:22;9.60;;;7.28;;
41233;SDS011;26968;42.686;23.352;2023-05-10T06:00:48;15.23;;;7.85;;
41233;SDS011;26968;42.686;23.352;2023-05-10T06:03:13;16.65;;;9.20;;
41233;SDS011;26968;42.686;23.352;2023-05-10T06:05:39;14.25;;;9.05;;
41233;SDS011;26968;42.686;23.352;2023-05-10T06:08:04;14.13;;;8.35;;
41233;SDS011;26968;42.686;23.352;2023-05-10T06:10:30;15.48;;;8.20;;
41233;SDS011;26968;42.686;23.352;2023-05-10T06:12:56;17.13;;;9.50;;
41233;SDS011;26968;42.686;23.352;2023-05-10T06:15:21;10.80;;;8.25;;
41233;SDS011;26968;42.686;23.352;2023-05-10T06:17:47;15.70;;;9.07;;
41233;SDS011;26968;42.686;23.352;2023-05-10T06:20:14;15.35;;;9.32;;
41233;SDS011;26968;42.686;23.352;2023-05-10T06:22:40;15.20;;;8.93;;
41233;SDS011;26968;42.686;23.352;2023-05-10T06:25:06;18.95;;;8.80;;
41233;SDS011;26968;42.686;23.352;2023-05-10T06:27:32;11.15;;;8.05;;
41233;SDS011;26968;42.686;23.352;2023-05-10T06:29:58;12.52;;;9.00;;
41233;SDS011;26968;42.686;23.352;2023-05-10T06:32:24;14.55;;;9.35;;
41233;SDS011;26968;42.686;23.352;2023-05-10T06:34:50;12.82;;;8.68;;
41233;SDS011;26968;42.686;23.352;2023-05-10T06:37:16;16.67;;;9.48;;
41233;SDS011;26968;42.686;23.352;2023-05-10T06:39:41;18.58;;;8.55;;
41233;SDS011;26968;42.686;23.352;2023-05-10T06:42:07;16.15;;;9.02;;
41233;SDS011;26968;42.686;23.352;2023-05-10T06:44:33;12.20;;;8.02;;
41233;SDS011;26968;42.686;23.352;2023-05-10T06:46:58;15.15;;;8.63;;
41233;SDS011;26968;42.686;23.352;2023-05-10T06:49:24;16.50;;;8.20;;
41233;SDS011;26968;42.686;23.352;2023-05-10T06:51:49;17.02;;;8.98;;
41233;SDS011;26968;42.686;23.352;2023-05-10T06:54:16;14.00;;;8.90;;
41233;SDS011;26968;42.686;23.352;2023-05-10T06:56:42;14.43;;;7.35;;
41233;SDS011;26968;42.686;23.352;2023-05-10T06:59:08;17.30;;;7.60;;
41233;SDS011;26968;42.686;23.352;2023-05-10T07:01:33;21.40;;;8.10;;
41233;SDS011;26968;42.686;23.352;2023-05-10T07:03:59;16.58;;;8.55;;
41233;SDS011;26968;42.686;23.352;2023-05-10T07:06:24;18.90;;;7.72;;
41233;SDS011;26968;42.686;23.352;2023-05-10T07:08:49;20.75;;;8.38;;
41233;SDS011;26968;42.686;23.352;2023-05-10T07:11:15;15.52;;;8.07;;
41233;SDS011;26968;42.686;23.352;2023-05-10T07:13:41;18.15;;;7.72;;
41233;SDS011;26968;42.686;23.352;2023-05-10T07:16:10;11.20;;;7.47;;
41233;SDS011;26968;42.686;23.352;2023-05-10T07:18:36;13.80;;;8.13;;
41233;SDS011;26968;42.686;23.352;2023-05-10T07:21:02;22.25;;;7.28;;
41233;SDS011;26968;42.686;23.352;2023-05-10T07:23:28;13.88;;;8.73;;
41233;SDS011;26968;42.686;23.352;2023-05-10T07:25:54;19.45;;;9.35;;
41233;SDS011;26968;42.686;23.352;2023-05-10T07:28:22;17.25;;;7.93;;
41233;SDS011;26968;42.686;23.352;2023-05-10T07:30:48;12.88;;;7.15;;
41233;SDS011;26968;42.686;23.352;2023-05-10T07:33:13;14.65;;;7.90;;
41233;SDS011;26968;42.686;23.352;2023-05-10T07:35:39;13.43;;;8.38;;
41233;SDS011;26968;42.686;23.352;2023-05-10T07:38:05;12.93;;;7.22;;
41233;SDS011;26968;42.686;23.352;2023-05-10T07:40:31;15.20;;;8.63;;
41233;SDS011;26968;42.686;23.352;2023-05-10T07:42:56;18.55;;;10.05;;
41233;SDS011;26968;42.686;23.352;2023-05-10T07:45:22;18.42;;;9.25;;
41233;SDS011;26968;42.686;23.352;2023-05-10T07:47:48;14.35;;;9.50;;
41233;SDS011;26968;42.686;23.352;2023-05-10T07:50:14;19.55;;;9.32;;
41233;SDS011;26968;42.686;23.352;2023-05-10T07:52:40;17.38;;;10.43;;
41233;SDS011;26968;42.686;23.352;2023-05-10T07:55:06;15.80;;;10.80;;
41233;SDS011;26968;42.686;23.352;2023-05-10T07:57:33;22.90;;;10.98;;
41233;SDS011;26968;42.686;23.352;2023-05-10T07:59:59;13.75;;;9.82;;
41233;SDS011;26968;42.686;23.352;2023-05-10T08:02:24;16.33;;;10.82;;
41233;SDS011;26968;42.686;23.352;2023-05-10T08:04:50;18.90;;;10.85;;
41233;SDS011;26968;42.686;23.352;2023-05-10T08:07:15;17.58;;;9.68;;
41233;SDS011;26968;42.686;23.352;2023-05-10T08:09:41;13.85;;;8.80;;
41233;SDS011;26968;42.686;23.352;2023-05-10T08:12:12;15.98;;;10.48;;
41233;SDS011;26968;42.686;23.352;2023-05-10T08:14:38;18.80;;;9.95;;
41233;SDS011;26968;42.686;23.352;2023-05-10T08:17:03;18.35;;;10.57;;
41233;SDS011;26968;42.686;23.352;2023-05-10T08:19:29;15.82;;;11.10;;
41233;SDS011;26968;42.686;23.352;2023-05-10T08:21:54;14.05;;;10.45;;
41233;SDS011;26968;42.686;23.352;2023-05-10T08:24:22;20.73;;;10.90;;
41233;SDS011;26968;42.686;23.352;2023-05-10T08:26:48;17.00;;;10.20;;
41233;SDS011;26968;42.686;23.352;2023-05-10T08:29:14;13.38;;;9.27;;
41233;SDS011;26968;42.686;23.352;2023-05-10T08:31:40;14.70;;;11.15;;
41233;SDS011;26968;42.686;23.352;2023-05-10T08:34:05;25.20;;;14.77;;
41233;SDS011;26968;42.686;23.352;2023-05-10T08:36:31;22.25;;;13.68;;
41233;SDS011;26968;42.686;23.352;2023-05-10T08:39:01;30.38;;;15.23;;
41233;SDS011;26968;42.686;23.352;2023-05-10T08:41:27;20.67;;;11.52;;
41233;SDS011;26968;42.686;23.352;2023-05-10T08:43:55;20.23;;;12.30;;
41233;SDS011;26968;42.686;23.352;2023-05-10T08:46:21;20.67;;;10.57;;
41233;SDS011;26968;42.686;23.352;2023-05-10T08:48:49;21.13;;;12.35;;
41233;SDS011;26968;42.686;23.352;2023-05-10T08:51:17;20.60;;;10.05;;
41233;SDS011;26968;42.686;23.352;2023-05-10T08:53:46;22.77;;;12.35;;
41233;SDS011;26968;42.686;23.352;2023-05-10T08:56:13;23.52;;;14.25;;
41233;SDS011;26968;42.686;23.352;2023-05-10T08:58:40;18.17;;;12.07;;
41233;SDS011;26968;42.686;23.352;2023-05-10T09:01:12;24.55;;;12.77;;
41233;SDS011;26968;42.686;23.352;2023-05-10T09:03:40;15.80;;;10.57;;
41233;SDS011;26968;42.686;23.352;2023-05-10T09:06:06;16.55;;;11.55;;
41233;SDS011;26968;42.686;23.352;2023-05-10T09:08:32;20.60;;;12.82;;
41233;SDS011;26968;42.686;23.352;2023-05-10T09:10:58;17.35;;;12.35;;
41233;SDS011;26968;42.686;23.352;2023-05-10T09:13:26;17.00;;;12.13;;
41233;SDS011;26968;42.686;23.352;2023-05-10T09:15:53;19.23;;;11.70;;
41233;SDS011;26968;42.686;23.352;2023-05-10T09:18:19;15.68;;;10.15;;
41233;SDS011;26968;42.686;23.352;2023-05-10T09:20:44;13.80;;;10.73;;
41233;SDS011;26968;42.686;23.352;2023-05-10T09:23:10;14.77;;;11.25;;
41233;SDS011;26968;42.686;23.352;2023-05-10T09:25:35;21.15;;;10.65;;
41233;SDS011;26968;42.686;23.352;2023-05-10T09:28:05;16.13;;;12.65;;
41233;SDS011;26968;42.686;23.352;2023-05-10T09:30:33;20.42;;;11.93;;
41233;SDS011;26968;42.686;23.352;2023-05-10T09:32:59;16.27;;;10.98;;
41233;SDS011;26968;42.686;23.352;2023-05-10T09:35:26;15.38;;;9.85;;
41233;SDS011;26968;42.686;23.352;2023-05-10T09:37:54;12.75;;;10.18;;
41233;SDS011;26968;42.686;23.352;2023-05-10T09:43:04;20.65;;;10.75;;
41233;SDS011;26968;42.686;23.352;2023-05-10T09:45:33;25.65;;;11.57;;
41233;SDS011;26968;42.686;23.352;2023-05-10T09:48:00;19.02;;;10.77;;
41233;SDS011;26968;42.686;23.352;2023-05-10T09:50:27;16.63;;;11.30;;
41233;SDS011;26968;42.686;23.352;2023-05-10T09:52:54;26.73;;;11.13;;
41233;SDS011;26968;42.686;23.352;2023-05-10T09:55:24;17.08;;;10.48;;
41233;SDS011;26968;42.686;23.352;2023-05-10T09:58:02;16.67;;;9.50;;
41233;SDS011;26968;42.686;23.352;2023-05-10T10:00:34;18.42;;;10.40;;
41233;SDS011;26968;42.686;23.352;2023-05-10T10:03:01;16.45;;;10.32;;
41233;SDS011;26968;42.686;23.352;2023-05-10T10:05:28;19.92;;;9.43;;
41233;SDS011;26968;42.686;23.352;2023-05-10T10:07:55;12.73;;;8.93;;
41233;SDS011;26968;42.686;23.352;2023-05-10T10:10:22;16.75;;;9.60;;
41233;SDS011;26968;42.686;23.352;2023-05-10T10:12:48;18.48;;;8.88;;
41233;SDS011;26968;42.686;23.352;2023-05-10T10:15:14;20.50;;;8.80;;
41233;SDS011;26968;42.686;23.352;2023-05-10T10:17:40;16.60;;;9.20;;
41233;SDS011;26968;42.686;23.352;2023-05-10T10:20:06;17.83;;;8.27;;
41233;SDS011;26968;42.686;23.352;2023-05-10T10:22:33;18.02;;;8.25;;
41233;SDS011;26968;42.686;23.352;2023-05-10T10:24:59;10.23;;;8.23;;
41233;SDS011;26968;42.686;23.352;2023-05-10T10:27:28;14.55;;;8.15;;
41233;SDS011;26968;42.686;23.352;2023-05-10T10:35:55;18.63;;;7.95;;
41233;SDS011;26968;42.686;23.352;2023-05-10T10:38:23;17.02;;;8.45;;
41233;SDS011;26968;42.686;23.352;2023-05-10T10:41:01;11.27;;;8.75;;
41233;SDS011;26968;42.686;23.352;2023-05-10T10:43:47;22.23;;;10.38;;
41233;SDS011;26968;42.686;23.352;2023-05-10T10:46:13;15.32;;;9.38;;
41233;SDS011;26968;42.686;23.352;2023-05-10T10:48:50;16.70;;;9.45;;
41233;SDS011;26968;42.686;23.352;2023-05-10T10:51:40;15.30;;;8.20;;
41233;SDS011;26968;42.686;23.352;2023-05-10T10:54:11;11.27;;;7.43;;
41233;SDS011;26968;42.686;23.352;2023-05-10T10:56:37;13.55;;;6.95;;
41233;SDS011;26968;42.686;23.352;2023-05-10T10:59:03;13.45;;;7.65;;
41233;SDS011;26968;42.686;23.352;2023-05-10T11:01:34;11.43;;;6.68;;
41233;SDS011;26968;42.686;23.352;2023-05-10T11:06:32;20.73;;;7.63;;
41233;SDS011;26968;42.686;23.352;2023-05-10T11:08:58;9.27;;;7.25;;
41233;SDS011;26968;42.686;23.352;2023-05-10T11:11:24;10.27;;;7.20;;
41233;SDS011;26968;42.686;23.352;2023-05-10T11:13:50;14.23;;;7.15;;
41233;SDS011;26968;42.686;23.352;2023-05-10T11:18:59;13.32;;;7.20;;
41233;SDS011;26968;42.686;23.352;2023-05-10T11:21:27;10.98;;;7.03;;
41233;SDS011;26968;42.686;23.352;2023-05-10T11:23:54;11.48;;;6.78;;
41233;SDS011;26968;42.686;23.352;2023-05-10T11:26:25;10.63;;;6.45;;
41233;SDS011;26968;42.686;23.352;2023-05-10T11:28:57;13.20;;;7.35;;
41233;SDS011;26968;42.686;23.352;2023-05-10T11:31:26;9.45;;;6.38;;
41233;SDS011;26968;42.686;23.352;2023-05-10T11:33:56;10.27;;;6.30;;
41233;SDS011;26968;42.686;23.352;2023-05-10T11:36:27;15.77;;;7.70;;
41233;SDS011;26968;42.686;23.352;2023-05-10T11:38:54;11.50;;;7.00;;
41233;SDS011;26968;42.686;23.352;2023-05-10T11:41:22;9.75;;;7.28;;
41233;SDS011;26968;42.686;23.352;2023-05-10T11:43:52;14.68;;;6.70;;
41233;SDS011;26968;42.686;23.352;2023-05-10T11:46:22;12.07;;;6.75;;
41233;SDS011;26968;42.686;23.352;2023-05-10T11:48:53;14.57;;;6.68;;
41233;SDS011;26968;42.686;23.352;2023-05-10T11:51:24;13.30;;;7.32;;
41233;SDS011;26968;42.686;23.352;2023-05-10T11:53:52;15.50;;;6.70;;
41233;SDS011;26968;42.686;23.352;2023-05-10T11:56:20;11.77;;;7.70;;
41233;SDS011;26968;42.686;23.352;2023-05-10T11:58:52;15.15;;;7.30;;
41233;SDS011;26968;42.686;23.352;2023-05-10T12:01:18;17.30;;;7.30;;
41233;SDS011;26968;42.686;23.352;2023-05-10T12:03:47;12.85;;;8.02;;
41233;SDS011;26968;42.686;23.352;2023-05-10T12:06:13;10.00;;;7.10;;
41233;SDS011;26968;42.686;23.352;2023-05-10T12:08:44;15.88;;;7.47;;
41233;SDS011;26968;42.686;23.352;2023-05-10T12:11:11;15.93;;;9.00;;
41233;SDS011;26968;42.686;23.352;2023-05-10T12:13:42;14.73;;;7.90;;
41233;SDS011;26968;42.686;23.352;2023-05-10T12:18:44;13.93;;;7.55;;
41233;SDS011;26968;42.686;23.352;2023-05-10T12:21:10;11.27;;;7.97;;
41233;SDS011;26968;42.686;23.352;2023-05-10T12:23:37;10.20;;;7.90;;
41233;SDS011;26968;42.686;23.352;2023-05-10T12:26:06;20.15;;;8.40;;
41233;SDS011;26968;42.686;23.352;2023-05-10T12:28:33;15.35;;;8.40;;
41233;SDS011;26968;42.686;23.352;2023-05-10T12:30:59;9.95;;;7.30;;
41233;SDS011;26968;42.686;23.352;2023-05-10T12:33:25;16.05;;;8.48;;
41233;SDS011;26968;42.686;23.352;2023-05-10T12:35:54;13.77;;;8.45;;
41233;SDS011;26968;42.686;23.352;2023-05-10T12:38:35;15.98;;;9.18;;
41233;SDS011;26968;42.686;23.352;2023-05-10T12:41:03;30.98;;;15.65;;
41233;SDS011;26968;42.686;23.352;2023-05-10T12:43:30;21.27;;;13.07;;
41233;SDS011;26968;42.686;23.352;2023-05-10T12:45:57;15.85;;;8.90;;
41233;SDS011;26968;42.686;23.352;2023-05-10T12:48:23;11.98;;;7.85;;
41233;SDS011;26968;42.686;23.352;2023-05-10T12:50:49;17.70;;;8.05;;
41233;SDS011;26968;42.686;23.352;2023-05-10T12:53:15;12.75;;;8.48;;
41233;SDS011;26968;42.686;23.352;2023-05-10T12:55:41;17.40;;;7.93;;
41233;SDS011;26968;42.686;23.352;2023-05-10T12:58:12;10.15;;;7.70;;
41233;SDS011;26968;42.686;23.352;2023-05-10T13:00:37;21.70;;;7.70;;
41233;SDS011;26968;42.686;23.352;2023-05-10T13:03:04;13.23;;;7.93;;
41233;SDS011;26968;42.686;23.352;2023-05-10T13:05:33;11.05;;;7.15;;
41233;SDS011;26968;42.686;23.352;2023-05-10T13:07:59;12.40;;;7.75;;
41233;SDS011;26968;42.686;23.352;2023-05-10T13:10:25;12.88;;;7.88;;
41233;SDS011;26968;42.686;23.352;2023-05-10T13:12:50;13.63;;;7.43;;
41233;SDS011;26968;42.686;23.352;2023-05-10T13:15:16;15.77;;;8.00;;
41233;SDS011;26968;42.686;23.352;2023-05-10T13:17:41;13.20;;;7.28;;
41233;SDS011;26968;42.686;23.352;2023-05-10T13:20:07;11.25;;;7.40;;
41233;SDS011;26968;42.686;23.352;2023-05-10T13:22:34;14.25;;;7.32;;
41233;SDS011;26968;42.686;23.352;2023-05-10T13:25:00;16.00;;;7.72;;
41233;SDS011;26968;42.686;23.352;2023-05-10T13:27:26;12.65;;;6.78;;
41233;SDS011;26968;42.686;23.352;2023-05-10T13:29:53;17.25;;;7.60;;
41233;SDS011;26968;42.686;23.352;2023-05-10T13:32:19;15.70;;;8.02;;
41233;SDS011;26968;42.686;23.352;2023-05-10T13:34:45;12.43;;;7.63;;
41233;SDS011;26968;42.686;23.352;2023-05-10T13:37:11;12.77;;;6.88;;
41233;SDS011;26968;42.686;23.352;2023-05-10T13:39:36;11.68;;;7.47;;
41233;SDS011;26968;42.686;23.352;2023-05-10T13:42:02;11.25;;;6.80;;
41233;SDS011;26968;42.686;23.352;2023-05-10T13:44:28;13.85;;;8.35;;
41233;SDS011;26968;42.686;23.352;2023-05-10T13:46:55;11.23;;;6.60;;
41233;SDS011;26968;42.686;23.352;2023-05-10T13:49:21;12.10;;;7.22;;
41233;SDS011;26968;42.686;23.352;2023-05-10T13:51:47;12.35;;;7.30;;
41233;SDS011;26968;42.686;23.352;2023-05-10T13:54:14;13.60;;;8.15;;
41233;SDS011;26968;42.686;23.352;2023-05-10T13:56:42;20.23;;;7.85;;
41233;SDS011;26968;42.686;23.352;2023-05-10T13:59:08;15.93;;;7.25;;
41233;SDS011;26968;42.686;23.352;2023-05-10T14:01:34;14.82;;;7.88;;
41233;SDS011;26968;42.686;23.352;2023-05-10T14:03:59;16.90;;;7.05;;
41233;SDS011;26968;42.686;23.352;2023-05-10T14:06:25;12.35;;;7.18;;
41233;SDS011;26968;42.686;23.352;2023-05-10T14:08:52;29.48;;;15.20;;
41233;SDS011;26968;42.686;23.352;2023-05-10T14:11:17;34.33;;;19.08;;
41233;SDS011;26968;42.686;23.352;2023-05-10T14:13:43;13.93;;;8.10;;
41233;SDS011;26968;42.686;23.352;2023-05-10T14:16:08;19.00;;;8.40;;
41233;SDS011;26968;42.686;23.352;2023-05-10T14:18:33;12.35;;;7.43;;
41233;SDS011;26968;42.686;23.352;2023-05-10T14:20:59;16.90;;;8.10;;
41233;SDS011;26968;42.686;23.352;2023-05-10T14:23:24;18.40;;;7.88;;
41233;SDS011;26968;42.686;23.352;2023-05-10T14:25:51;11.40;;;8.20;;
41233;SDS011;26968;42.686;23.352;2023-05-10T14:28:17;14.52;;;6.75;;
41233;SDS011;26968;42.686;23.352;2023-05-10T14:30:43;12.00;;;7.35;;
41233;SDS011;26968;42.686;23.352;2023-05-10T14:33:09;12.25;;;6.93;;
41233;SDS011;26968;42.686;23.352;2023-05-10T14:35:35;10.90;;;7.03;;
41233;SDS011;26968;42.686;23.352;2023-05-10T14:38:01;10.82;;;7.97;;
41233;SDS011;26968;42.686;23.352;2023-05-10T14:40:28;12.48;;;6.85;;
41233;SDS011;26968;42.686;23.352;2023-05-10T14:42:53;20.35;;;7.43;;
41233;SDS011;26968;42.686;23.352;2023-05-10T14:45:20;11.95;;;7.88;;
41233;SDS011;26968;42.686;23.352;2023-05-10T14:47:47;15.23;;;7.65;;
41233;SDS011;26968;42.686;23.352;2023-05-10T14:50:13;14.93;;;7.28;;
41233;SDS011;26968;42.686;23.352;2023-05-10T14:56:01;17.75;;;7.10;;